sensor_id;sensor_type;location;lat;lon;timestamp;pressure;altitude;pressure_sealevel;temperature;humidity
9110;BME280;4590;51.462;6.692;2023-11-25T08:20:04;100908.84;;;5.59;74.89
9110;BME280;4590;51.462;6.692;2023-11-25T08:22:37;100911.31;;;5.66;74.41
9110;BME280;4590;51.462;6.692;2023-11-25T08:46:15;100934.31;;;5.90;75.51
9110;BME280;4590;51.462;6.692;2023-11-25T08:48:47;100945.81;;;5.97;74.89
9110;BME280;4590;51.462;6.692;2023-11-25T08:51:18;100947.97;;;6.01;74.66
9110;BME280;4590;51.462;6.692;2023-11-25T09:25:32;100898.53;;;6.48;75.46
9110;BME280;4590;51.462;6.692;2023-11-25T09:30:39;100894.16;;;6.57;75.94
9110;BME280;4590;51.462;6.692;2023-11-25T10:49:22;100843.56;;;8.41;73.36
9110;BME280;4590;51.462;6.692;2023-11-25T16:30:17;100864.53;;;7.49;74.37
9110;BME280;4590;51.462;6.692;2023-11-25T16:32:43;100868.09;;;7.54;74.20
9110;BME280;4590;51.462;6.692;2023-11-25T16:35:10;100868.66;;;7.51;74.18
9110;BME280;4590;51.462;6.692;2023-11-25T16:37:59;100877.69;;;7.52;74.46
9110;BME280;4590;51.462;6.692;2023-11-25T16:40:31;100882.06;;;7.48;74.32
9110;BME280;4590;51.462;6.692;2023-11-25T16:49:40;100906.72;;;7.48;74.55
9110;BME280;4590;51.462;6.692;2023-11-25T16:52:18;100918.22;;;7.45;74.02
9110;BME280;4590;51.462;6.692;2023-11-25T16:54:43;100929.72;;;7.47;74.11
9110;BME280;4590;51.462;6.692;2023-11-25T16:57:09;100921.50;;;7.47;74.56
9110;BME280;4590;51.462;6.692;2023-11-25T16:59:37;100923.41;;;7.46;73.96
9110;BME280;4590;51.462;6.692;2023-11-25T17:02:03;100939.03;;;7.46;73.86
9110;BME280;4590;51.462;6.692;2023-11-25T17:04:29;100937.94;;;7.42;73.79
9110;BME280;4590;51.462;6.692;2023-11-25T17:07:21;100935.78;;;7.38;73.78
9110;BME280;4590;51.462;6.692;2023-11-25T17:09:49;100951.06;;;7.45;73.71
9110;BME280;4590;51.462;6.692;2023-11-25T17:12:17;100945.59;;;7.45;74.12
9110;BME280;4590;51.462;6.692;2023-11-25T17:33:01;100945.59;;;7.45;73.91
9110;BME280;4590;51.462;6.692;2023-11-25T17:35:28;100950.50;;;7.53;73.53
9110;BME280;4590;51.462;6.692;2023-11-25T17:37:54;100954.63;;;7.45;73.81
9110;BME280;4590;51.462;6.692;2023-11-25T17:40:22;100971.31;;;7.54;73.90
9110;BME280;4590;51.462;6.692;2023-11-25T17:42:59;100973.78;;;7.55;73.49
9110;BME280;4590;51.462;6.692;2023-11-25T17:45:27;100972.66;;;7.56;73.73
9110;BME280;4590;51.462;6.692;2023-11-25T17:48:03;100980.63;;;7.53;73.75
9110;BME280;4590;51.462;6.692;2023-11-25T17:50:29;100986.06;;;7.58;73.80
9110;BME280;4590;51.462;6.692;2023-11-25T17:52:54;100984.97;;;7.59;73.84
9110;BME280;4590;51.462;6.692;2023-11-25T17:55:22;100984.69;;;7.60;73.97
9110;BME280;4590;51.462;6.692;2023-11-25T17:57:47;100973.72;;;7.60;74.12
9110;BME280;4590;51.462;6.692;2023-11-25T18:00:13;100977.03;;;7.57;74.06
9110;BME280;4590;51.462;6.692;2023-11-25T18:02:38;100984.13;;;7.58;74.08
9110;BME280;4590;51.462;6.692;2023-11-25T18:05:05;100986.03;;;7.63;73.71
9110;BME280;4590;51.462;6.692;2023-11-25T18:07:34;100992.63;;;7.62;73.69
9110;BME280;4590;51.462;6.692;2023-11-25T18:10:02;101002.47;;;7.63;73.69
9110;BME280;4590;51.462;6.692;2023-11-25T18:12:27;101006.84;;;7.64;73.45
9110;BME280;4590;51.462;6.692;2023-11-25T18:14:53;101007.13;;;7.62;73.97
9110;BME280;4590;51.462;6.692;2023-11-25T18:17:18;101004.94;;;7.64;73.63
9110;BME280;4590;51.462;6.692;2023-11-25T18:19:43;101021.09;;;7.66;73.86
9110;BME280;4590;51.462;6.692;2023-11-25T18:22:10;101008.22;;;7.66;73.79
9110;BME280;4590;51.462;6.692;2023-11-25T18:24:36;101014.53;;;7.67;73.75
9110;BME280;4590;51.462;6.692;2023-11-25T18:27:02;101011.78;;;7.67;73.60
9110;BME280;4590;51.462;6.692;2023-11-25T18:29:27;101021.09;;;7.66;73.06
9110;BME280;4590;51.462;6.692;2023-11-25T18:31:53;101020.28;;;7.65;73.33
9110;BME280;4590;51.462;6.692;2023-11-25T18:34:18;101027.13;;;7.63;73.32
9110;BME280;4590;51.462;6.692;2023-11-25T18:36:43;101033.69;;;7.62;73.62
9110;BME280;4590;51.462;6.692;2023-11-25T18:39:12;101034.25;;;7.59;73.32
9110;BME280;4590;51.462;6.692;2023-11-25T18:41:39;101026.91;;;7.54;73.18
9110;BME280;4590;51.462;6.692;2023-11-25T18:44:04;101027.16;;;7.53;72.91
9110;BME280;4590;51.462;6.692;2023-11-25T18:46:32;101031.28;;;7.50;73.42
9110;BME280;4590;51.462;6.692;2023-11-25T18:48:58;101024.97;;;7.50;73.54
9110;BME280;4590;51.462;6.692;2023-11-25T18:51:24;101032.66;;;7.48;73.20
9110;BME280;4590;51.462;6.692;2023-11-25T18:53:49;101037.59;;;7.46;73.10
9110;BME280;4590;51.462;6.692;2023-11-25T18:56:14;101043.06;;;7.40;73.46
9110;BME280;4590;51.462;6.692;2023-11-25T18:58:40;101038.72;;;7.39;73.09
9110;BME280;4590;51.462;6.692;2023-11-25T19:01:26;101048.03;;;7.33;73.46
9110;BME280;4590;51.462;6.692;2023-11-25T19:04:08;101048.56;;;7.35;73.28
9110;BME280;4590;51.462;6.692;2023-11-25T19:06:33;101062.53;;;7.34;73.34
9110;BME280;4590;51.462;6.692;2023-11-25T19:08:59;101072.13;;;7.31;72.82
9110;BME280;4590;51.462;6.692;2023-11-25T19:11:24;101066.38;;;7.28;72.98
9110;BME280;4590;51.462;6.692;2023-11-25T19:13:51;101074.59;;;7.23;73.36
9110;BME280;4590;51.462;6.692;2023-11-25T19:16:18;101078.72;;;7.20;73.24
9110;BME280;4590;51.462;6.692;2023-11-25T19:18:44;101081.16;;;7.17;73.29
9110;BME280;4590;51.462;6.692;2023-11-25T19:31:22;101101.97;;;7.02;73.01
9110;BME280;4590;51.462;6.692;2023-11-25T19:33:49;101104.97;;;7.01;73.28
9110;BME280;4590;51.462;6.692;2023-11-25T19:36:15;101093.50;;;6.99;73.41
9110;BME280;4590;51.462;6.692;2023-11-25T19:38:41;101101.69;;;6.99;73.35
9110;BME280;4590;51.462;6.692;2023-11-25T19:41:08;101105.78;;;6.96;73.49
9110;BME280;4590;51.462;6.692;2023-11-25T19:43:34;101106.34;;;6.98;73.77
9110;BME280;4590;51.462;6.692;2023-11-25T19:45:59;101109.34;;;6.97;73.33
9110;BME280;4590;51.462;6.692;2023-11-25T19:48:25;101105.53;;;6.98;73.77
9110;BME280;4590;51.462;6.692;2023-11-25T19:50:50;101113.47;;;6.99;73.29
9110;BME280;4590;51.462;6.692;2023-11-25T19:53:15;101114.00;;;7.01;73.49
9110;BME280;4590;51.462;6.692;2023-11-25T19:55:41;101116.47;;;7.03;73.45
9110;BME280;4590;51.462;6.692;2023-11-25T19:58:06;101115.38;;;7.04;73.83
9110;BME280;4590;51.462;6.692;2023-11-25T20:00:32;101114.28;;;7.05;73.78
9110;BME280;4590;51.462;6.692;2023-11-25T20:02:58;101115.38;;;7.04;73.56
9110;BME280;4590;51.462;6.692;2023-11-25T20:05:26;101118.38;;;7.02;74.13
9110;BME280;4590;51.462;6.692;2023-11-25T20:07:51;101128.50;;;7.02;73.28
9110;BME280;4590;51.462;6.692;2023-11-25T20:10:17;101132.63;;;6.99;73.67
9110;BME280;4590;51.462;6.692;2023-11-25T20:12:44;101135.63;;;6.98;73.65
9110;BME280;4590;51.462;6.692;2023-11-25T20:15:10;101134.25;;;7.00;73.79
9110;BME280;4590;51.462;6.692;2023-11-25T20:17:38;101137.00;;;7.00;74.09
9110;BME280;4590;51.462;6.692;2023-11-25T20:20:07;101145.47;;;6.99;74.03
9110;BME280;4590;51.462;6.692;2023-11-25T20:22:33;101138.34;;;6.93;74.47
9110;BME280;4590;51.462;6.692;2023-11-25T20:24:58;101141.63;;;7.00;73.63
9110;BME280;4590;51.462;6.692;2023-11-25T20:27:25;101144.94;;;7.02;73.69
9110;BME280;4590;51.462;6.692;2023-11-25T20:29:50;101147.41;;;7.03;73.79
9110;BME280;4590;51.462;6.692;2023-11-25T20:32:16;101152.31;;;7.01;73.55
9110;BME280;4590;51.462;6.692;2023-11-25T20:34:44;101156.97;;;7.01;73.38
9110;BME280;4590;51.462;6.692;2023-11-25T20:37:10;101161.88;;;6.99;73.52
9110;BME280;4590;51.462;6.692;2023-11-25T20:39:36;101162.44;;;7.01;73.72
9110;BME280;4590;51.462;6.692;2023-11-25T20:42:01;101159.97;;;6.99;73.67
9110;BME280;4590;51.462;6.692;2023-11-25T20:44:27;101158.31;;;6.98;73.52
9110;BME280;4590;51.462;6.692;2023-11-25T20:46:53;101159.97;;;6.99;73.70
9110;BME280;4590;51.462;6.692;2023-11-25T20:49:19;101163.25;;;6.96;73.51
9110;BME280;4590;51.462;6.692;2023-11-25T20:51:44;101162.69;;;6.94;73.39
9110;BME280;4590;51.462;6.692;2023-11-25T20:57:19;101165.16;;;6.91;73.42
9110;BME280;4590;51.462;6.692;2023-11-25T20:59:46;101170.38;;;6.92;73.99
9110;BME280;4590;51.462;6.692;2023-11-25T21:02:11;101174.47;;;6.90;74.02
9110;BME280;4590;51.462;6.692;2023-11-25T21:07:16;101168.72;;;6.86;73.23
9110;BME280;4590;51.462;6.692;2023-11-25T21:09:42;101174.72;;;6.83;73.34
9110;BME280;4590;51.462;6.692;2023-11-25T21:12:08;101173.34;;;6.81;73.44
9110;BME280;4590;51.462;6.692;2023-11-25T21:14:38;101183.72;;;6.79;73.76
9110;BME280;4590;51.462;6.692;2023-11-25T21:17:05;101179.91;;;6.75;73.48
9110;BME280;4590;51.462;6.692;2023-11-25T21:19:45;101199.56;;;6.66;73.38
9110;BME280;4590;51.462;6.692;2023-11-25T21:22:15;101197.91;;;6.65;73.24
9110;BME280;4590;51.462;6.692;2023-11-25T21:24:41;101202.84;;;6.63;73.86
9110;BME280;4590;51.462;6.692;2023-11-25T21:27:06;101202.84;;;6.58;73.39
9110;BME280;4590;51.462;6.692;2023-11-25T21:29:31;101203.63;;;6.54;73.30
9110;BME280;4590;51.462;6.692;2023-11-25T21:31:57;101199.78;;;6.50;73.17
9110;BME280;4590;51.462;6.692;2023-11-25T21:34:22;101202.22;;;6.46;73.55
9110;BME280;4590;51.462;6.692;2023-11-25T21:36:48;101209.06;;;6.44;73.50
9110;BME280;4590;51.462;6.692;2023-11-25T21:39:13;101208.78;;;6.40;73.28
9110;BME280;4590;51.462;6.692;2023-11-25T21:41:40;101193.16;;;6.36;73.27
9110;BME280;4590;51.462;6.692;2023-11-25T21:44:05;101201.06;;;6.32;73.11
9110;BME280;4590;51.462;6.692;2023-11-25T21:46:31;101202.72;;;6.28;73.05
9110;BME280;4590;51.462;6.692;2023-11-25T21:48:56;101206.53;;;6.27;73.67
9110;BME280;4590;51.462;6.692;2023-11-25T21:51:22;101201.59;;;6.24;73.30
9110;BME280;4590;51.462;6.692;2023-11-25T21:53:48;101193.94;;;6.21;73.40
9110;BME280;4590;51.462;6.692;2023-11-25T21:56:16;101200.75;;;6.18;73.68
9110;BME280;4590;51.462;6.692;2023-11-25T21:58:43;101204.81;;;6.16;73.31
9110;BME280;4590;51.462;6.692;2023-11-25T22:01:09;101207.78;;;6.04;73.31
9110;BME280;4590;51.462;6.692;2023-11-25T22:03:38;101202.06;;;6.06;73.45
9110;BME280;4590;51.462;6.692;2023-11-25T22:06:03;101206.69;;;6.05;73.28
9110;BME280;4590;51.462;6.692;2023-11-25T22:08:31;101208.34;;;6.06;73.86
9110;BME280;4590;51.462;6.692;2023-11-25T22:10:57;101208.34;;;6.06;74.26
9110;BME280;4590;51.462;6.692;2023-11-25T22:13:22;101210.25;;;6.06;73.47
9110;BME280;4590;51.462;6.692;2023-11-25T22:15:48;101220.63;;;6.04;73.58
9110;BME280;4590;51.462;6.692;2023-11-25T22:18:14;101237.00;;;6.04;73.89
9110;BME280;4590;51.462;6.692;2023-11-25T22:20:39;101226.91;;;6.04;73.81
9110;BME280;4590;51.462;6.692;2023-11-25T22:23:05;101238.13;;;6.08;74.52
9110;BME280;4590;51.462;6.692;2023-11-25T22:25:30;101233.22;;;6.10;74.17
9110;BME280;4590;51.462;6.692;2023-11-25T22:28:03;101236.25;;;6.13;74.11
9110;BME280;4590;51.462;6.692;2023-11-25T22:30:34;101235.97;;;6.15;74.44
9110;BME280;4590;51.462;6.692;2023-11-25T22:33:00;101230.81;;;6.18;73.87
9110;BME280;4590;51.462;6.692;2023-11-25T22:35:26;101230.53;;;6.20;74.24
9110;BME280;4590;51.462;6.692;2023-11-25T22:37:52;101227.78;;;6.15;74.56
9110;BME280;4590;51.462;6.692;2023-11-25T22:40:18;101229.19;;;6.22;74.30
9110;BME280;4590;51.462;6.692;2023-11-25T22:42:43;101221.56;;;6.24;74.41
9110;BME280;4590;51.462;6.692;2023-11-25T22:45:09;101223.47;;;6.24;74.35
9110;BME280;4590;51.462;6.692;2023-11-25T22:47:36;101219.66;;;6.25;74.69
9110;BME280;4590;51.462;6.692;2023-11-25T22:50:03;101222.38;;;6.25;74.42
9110;BME280;4590;51.462;6.692;2023-11-25T22:52:29;101224.03;;;6.26;74.61
9110;BME280;4590;51.462;6.692;2023-11-25T22:54:55;101224.28;;;6.24;74.16
9110;BME280;4590;51.462;6.692;2023-11-25T22:57:22;101224.78;;;6.16;74.37
9110;BME280;4590;51.462;6.692;2023-11-25T22:59:47;101225.63;;;6.22;74.21
9110;BME280;4590;51.462;6.692;2023-11-25T23:02:17;101224.56;;;6.23;74.38
9110;BME280;4590;51.462;6.692;2023-11-25T23:04:42;101225.63;;;6.22;74.46
9110;BME280;4590;51.462;6.692;2023-11-25T23:07:07;101229.19;;;6.22;74.47
9110;BME280;4590;51.462;6.692;2023-11-25T23:09:33;101237.66;;;6.21;74.36
9110;BME280;4590;51.462;6.692;2023-11-25T23:11:58;101234.09;;;6.20;74.57
9110;BME280;4590;51.462;6.692;2023-11-25T23:14:24;101233.84;;;6.22;74.24
9110;BME280;4590;51.462;6.692;2023-11-25T23:16:49;101244.19;;;6.20;74.19
9110;BME280;4590;51.462;6.692;2023-11-25T23:19:15;101242.81;;;6.17;74.29
9110;BME280;4590;51.462;6.692;2023-11-25T23:21:41;101240.34;;;6.16;74.03
9110;BME280;4590;51.462;6.692;2023-11-25T23:24:07;101245.53;;;6.12;74.11
9110;BME280;4590;51.462;6.692;2023-11-25T23:26:32;101245.25;;;6.09;74.06
9110;BME280;4590;51.462;6.692;2023-11-25T23:28:58;101245.75;;;6.06;73.91
9110;BME280;4590;51.462;6.692;2023-11-25T23:31:23;101248.75;;;6.04;73.97
9110;BME280;4590;51.462;6.692;2023-11-25T23:33:48;101246.28;;;6.03;73.97
9110;BME280;4590;51.462;6.692;2023-11-25T23:36:14;101239.16;;;6.02;74.13
9110;BME280;4590;51.462;6.692;2023-11-25T23:38:39;101254.22;;;6.04;74.28
9110;BME280;4590;51.462;6.692;2023-11-25T23:41:05;101238.91;;;6.03;74.41
9110;BME280;4590;51.462;6.692;2023-11-25T23:43:37;101239.16;;;6.02;74.04
9110;BME280;4590;51.462;6.692;2023-11-25T23:46:03;101237.81;;;6.04;74.28
9110;BME280;4590;51.462;6.692;2023-11-25T23:48:29;101241.38;;;6.05;74.38
9110;BME280;4590;51.462;6.692;2023-11-25T23:50:55;101244.69;;;6.07;74.69
9110;BME280;4590;51.462;6.692;2023-11-25T23:53:20;101249.06;;;6.08;74.41
9110;BME280;4590;51.462;6.692;2023-11-25T23:55:46;101250.69;;;6.09;74.07
9110;BME280;4590;51.462;6.692;2023-11-25T23:58:11;101240.84;;;6.08;74.08
